createdAt,value
2022-11-05T00:00:53.429Z,96808.13
2022-11-05T00:03:39.527Z,96815.94
2022-11-05T00:06:29.528Z,96823.38
2022-11-05T00:09:15.615Z,96810.50
2022-11-05T00:12:01.373Z,96812.84
2022-11-05T00:14:47.778Z,96802.16
2022-11-05T00:17:15.112Z,96810.50
2022-11-05T00:19:42.514Z,96807.06
2022-11-05T00:22:28.336Z,96803.66
2022-11-05T00:25:14.293Z,96805.53
2022-11-05T00:27:41.755Z,96806.03
2022-11-05T00:30:09.949Z,96809.16
2022-11-05T00:32:37.454Z,96788.56
2022-11-05T00:35:06.983Z,96821.31
2022-11-05T00:37:34.488Z,96822.00
2022-11-05T00:40:02.012Z,96817.00
2022-11-05T00:42:49.315Z,96819.44
2022-11-05T00:45:16.994Z,96829.25
2022-11-05T00:48:02.707Z,96812.88
2022-11-05T00:50:30.414Z,96825.31
2022-11-05T00:53:00.702Z,96820.88
2022-11-05T00:55:34.912Z,96820.09
2022-11-05T00:58:03.697Z,96824.13
2022-11-05T01:00:32.318Z,96819.16
2022-11-05T01:03:01.722Z,96815.38
2022-11-05T01:05:30.340Z,96824.38
2022-11-05T01:07:58.175Z,96824.81
2022-11-05T01:10:26.251Z,96816.28
2022-11-05T01:12:53.636Z,96825.06
2022-11-05T01:15:21.281Z,96822.50
2022-11-05T01:17:49.134Z,96830.94
2022-11-05T01:20:16.878Z,96825.25
2022-11-05T01:22:44.394Z,96845.06
2022-11-05T01:25:11.822Z,96833.06
2022-11-05T01:27:39.742Z,96826.09
2022-11-05T01:30:08.926Z,96831.84
2022-11-05T01:32:37.570Z,96827.66
2022-11-05T01:35:06.743Z,96822.97
2022-11-05T01:37:35.658Z,96825.75
2022-11-05T01:40:04.278Z,96825.25
2022-11-05T01:42:32.750Z,96828.50
2022-11-05T01:45:09.247Z,96835.16
2022-11-05T01:47:39.839Z,96798.16
2022-11-05T01:50:40.847Z,96830.00
2022-11-05T01:53:37.635Z,96840.50
2022-11-05T01:56:13.759Z,96841.44
2022-11-05T01:58:53.547Z,96834.56
2022-11-05T02:01:21.165Z,96838.94
2022-11-05T02:03:50.954Z,96838.75
2022-11-05T02:06:19.907Z,96847.97
2022-11-05T02:09:07.985Z,96839.91
2022-11-05T02:11:35.469Z,96822.56
2022-11-05T02:14:03.180Z,96850.41
2022-11-05T02:17:02.710Z,96853.38
2022-11-05T02:19:54.003Z,96844.81
2022-11-05T02:22:58.680Z,96854.13
2022-11-05T02:25:57.441Z,96851.88
2022-11-05T02:28:39.843Z,96843.88
2022-11-05T02:31:27.253Z,96851.69
2022-11-05T02:34:19.221Z,96849.28
2022-11-05T02:36:49.107Z,96860.53
2022-11-05T02:39:27.855Z,96859.53
2022-11-05T02:42:24.625Z,96849.78
2022-11-05T02:45:22.707Z,96862.47
2022-11-05T02:48:14.477Z,96858.69
2022-11-05T02:50:55.772Z,96856.69
2022-11-05T02:53:26.052Z,96861.94
2022-11-05T02:55:59.787Z,96858.72
2022-11-05T02:58:30.829Z,96860.06
2022-11-05T03:00:59.441Z,96857.63
2022-11-05T03:03:33.982Z,96865.03
2022-11-05T03:06:25.904Z,96860.81
2022-11-05T03:09:02.756Z,96863.94
2022-11-05T03:11:33.067Z,96850.72
2022-11-05T03:14:13.573Z,96853.59
2022-11-05T03:16:52.114Z,96851.50
2022-11-05T03:19:32.848Z,96856.84
2022-11-05T03:22:08.677Z,96858.66
2022-11-05T03:24:39.431Z,96859.66
2022-11-05T03:27:12.899Z,96866.72
2022-11-05T03:29:47.773Z,96853.38
2022-11-05T03:32:17.729Z,96865.19
2022-11-05T03:34:59.100Z,96858.84
2022-11-05T03:37:32.963Z,96855.28
2022-11-05T03:40:02.122Z,96865.75
2022-11-05T03:42:36.168Z,96852.91
2022-11-05T03:45:10.934Z,96872.03
2022-11-05T03:47:43.447Z,96875.81
2022-11-05T03:50:22.775Z,96872.59
2022-11-05T03:52:59.461Z,96872.59
2022-11-05T03:55:34.235Z,96862.72
2022-11-05T03:58:04.468Z,96867.03
2022-11-05T04:00:32.384Z,96874.28
2022-11-05T04:02:59.822Z,96872.38
2022-11-05T04:05:27.305Z,96878.81
2022-11-05T04:08:14.493Z,96867.47
2022-11-05T04:11:00.750Z,96870.56
2022-11-05T04:13:28.868Z,96880.91
2022-11-05T04:16:15.648Z,96886.78
2022-11-05T04:18:43.501Z,96880.56
2022-11-05T04:21:30.161Z,96879.44
2022-11-05T04:24:09.989Z,96882.88
2022-11-05T04:26:40.282Z,96898.31
2022-11-05T04:29:27.119Z,96889.56
2022-11-05T04:31:54.970Z,96902.78
2022-11-05T04:34:22.782Z,96885.31
2022-11-05T04:36:51.656Z,96897.09
2022-11-05T04:39:20.313Z,96892.91
2022-11-05T04:41:50.798Z,96889.50
2022-11-05T04:44:18.169Z,96903.28
2022-11-05T04:46:45.530Z,96889.59
2022-11-05T04:49:12.995Z,96882.81
2022-11-05T04:51:40.319Z,96880.13
2022-11-05T04:54:07.790Z,96893.03
2022-11-05T04:56:35.192Z,96895.81
2022-11-05T04:59:02.523Z,96891.16
2022-11-05T05:01:30.001Z,96884.44
2022-11-05T05:03:57.583Z,96903.66
2022-11-05T05:06:25.108Z,96885.13
2022-11-05T05:08:52.623Z,96896.50
2022-11-05T05:11:21.851Z,96903.59
2022-11-05T05:13:49.781Z,96907.44
2022-11-05T05:16:27.247Z,96915.66
2022-11-05T05:18:55.011Z,96912.13
2022-11-05T05:21:42.422Z,96915.22
2022-11-05T05:24:18.879Z,96917.72
2022-11-05T05:26:48.813Z,96913.53
2022-11-05T05:29:16.942Z,96899.91
2022-11-05T05:31:44.759Z,96908.41
2022-11-05T05:34:13.220Z,96913.94
2022-11-05T05:36:40.967Z,96919.28
2022-11-05T05:39:11.128Z,96920.41
2022-11-05T05:41:38.908Z,96912.50
2022-11-05T05:44:06.890Z,96924.28
2022-11-05T05:46:34.354Z,96928.59
2022-11-05T05:49:01.732Z,96927.06
2022-11-05T05:51:29.109Z,96927.81
2022-11-05T05:53:56.448Z,96932.41
2022-11-05T05:56:23.815Z,96921.78
2022-11-05T05:58:51.183Z,96934.91
2022-11-05T06:01:20.109Z,96930.34
2022-11-05T06:03:48.755Z,96938.69
2022-11-05T06:06:21.319Z,96934.31
2022-11-05T06:08:49.268Z,96940.19
2022-11-05T06:11:16.765Z,96939.41
2022-11-05T06:13:44.352Z,96937.41
2022-11-05T06:16:11.779Z,96937.25
2022-11-05T06:18:39.094Z,96938.00
2022-11-05T06:21:12.210Z,96940.88
2022-11-05T06:23:41.425Z,96949.13
2022-11-05T06:26:14.924Z,96938.97
2022-11-05T06:28:42.703Z,96950.44
2022-11-05T06:31:11.184Z,96945.09
2022-11-05T06:33:39.428Z,96945.09
2022-11-05T06:36:08.316Z,96952.09
2022-11-05T06:38:38.423Z,96954.44
2022-11-05T06:41:10.091Z,96955.44
2022-11-05T06:43:38.474Z,96953.44
2022-11-05T06:46:06.679Z,96952.44
2022-11-05T06:48:34.485Z,96951.22
2022-11-05T06:51:02.324Z,96950.00
2022-11-05T06:53:30.359Z,96958.03
2022-11-05T06:55:57.789Z,96957.00
2022-11-05T06:58:25.157Z,96958.22
2022-11-05T07:00:52.615Z,96963.66
2022-11-05T07:03:20.018Z,96966.66
2022-11-05T07:05:49.778Z,96970.28
2022-11-05T07:08:17.583Z,96963.38
2022-11-05T07:10:45.263Z,96963.03
2022-11-05T07:13:13.086Z,96973.84
2022-11-05T07:15:40.798Z,96967.38
2022-11-05T07:18:09.650Z,96973.06
2022-11-05T07:20:37.143Z,96979.94
2022-11-05T07:23:12.158Z,96946.06
2022-11-05T07:25:42.110Z,96980.13
2022-11-05T07:28:10.613Z,96976.34
2022-11-05T07:30:38.295Z,96982.78
2022-11-05T07:33:05.736Z,96982.47
2022-11-05T07:35:33.092Z,96983.25
2022-11-05T07:38:00.540Z,96987.72
2022-11-05T07:40:29.699Z,96984.91
2022-11-05T07:43:01.850Z,96993.09
2022-11-05T07:45:31.269Z,96991.63
2022-11-05T07:48:02.731Z,96993.63
2022-11-05T07:50:32.761Z,96984.72
2022-11-05T07:53:05.584Z,96992.16
2022-11-05T07:55:34.159Z,96984.03
2022-11-05T07:58:01.832Z,96985.44
2022-11-05T08:00:31.177Z,96990.16
2022-11-05T08:03:08.426Z,96990.00
2022-11-05T08:05:38.480Z,96998.16
2022-11-05T08:08:08.323Z,97000.25
2022-11-05T08:10:36.955Z,96993.28
2022-11-05T08:13:05.076Z,96992.06
2022-11-05T08:15:32.792Z,96992.56
2022-11-05T08:18:05.786Z,97008.59
2022-11-05T08:20:34.052Z,97000.94
2022-11-05T08:23:01.749Z,96992.22
2022-11-05T08:25:29.217Z,96997.94
2022-11-05T08:27:58.882Z,96999.47
2022-11-05T08:30:26.861Z,96997.16
2022-11-05T08:32:58.950Z,96995.75
2022-11-05T08:35:27.448Z,96999.38
2022-11-05T08:37:59.245Z,97003.09
2022-11-05T08:40:27.395Z,97007.94
2022-11-05T08:42:58.061Z,97017.34
2022-11-05T08:45:27.124Z,97027.25
2022-11-05T08:48:10.492Z,97028.03
2022-11-05T08:50:38.203Z,97023.78
2022-11-05T08:53:06.744Z,97028.97
2022-11-05T08:55:34.227Z,97030.59
2022-11-05T08:58:03.883Z,97035.88
2022-11-05T09:00:35.043Z,97035.19
2022-11-05T09:03:04.125Z,97038.09
2022-11-05T09:05:37.839Z,97032.69
2022-11-05T09:08:10.499Z,97041.91
2022-11-05T09:10:38.361Z,97041.69
2022-11-05T09:13:05.803Z,97042.47
2022-11-05T09:15:35.735Z,97059.19
2022-11-05T09:18:05.859Z,97054.94
2022-11-05T09:20:33.533Z,97060.50
2022-11-05T09:23:01.127Z,97055.16
2022-11-05T09:25:28.851Z,97049.53
2022-11-05T09:28:17.113Z,97059.28
2022-11-05T09:30:47.565Z,97059.53
2022-11-05T09:33:16.264Z,97068.19
2022-11-05T09:35:43.819Z,97062.72
2022-11-05T09:38:11.513Z,97067.66
2022-11-05T09:41:00.596Z,97060.59
2022-11-05T09:43:34.859Z,97070.41
2022-11-05T09:46:12.044Z,97078.44
2022-11-05T09:48:41.329Z,97064.00
2022-11-05T09:51:12.505Z,97079.75
2022-11-05T09:53:41.607Z,97078.88
2022-11-05T09:56:26.912Z,97063.50
2022-11-05T09:59:00.304Z,97080.00
2022-11-05T10:01:37.583Z,97080.41
2022-11-05T10:04:15.696Z,97067.19
2022-11-05T10:06:55.642Z,97070.41
2022-11-05T10:09:48.780Z,97079.88
2022-11-05T10:12:34.711Z,97076.56
2022-11-05T10:15:18.827Z,97073.38
2022-11-05T10:18:10.700Z,97082.31
2022-11-05T10:20:39.806Z,97089.56
2022-11-05T10:23:19.576Z,97088.19
2022-11-05T10:26:09.497Z,97086.22
2022-11-05T10:28:37.001Z,97100.19
2022-11-05T10:31:08.793Z,97106.88
2022-11-05T10:33:44.358Z,97098.94
2022-11-05T10:36:45.178Z,97107.06
2022-11-05T10:39:18.090Z,97105.06
2022-11-05T10:41:59.806Z,97101.53
2022-11-05T10:44:44.353Z,97108.28
2022-11-05T10:47:32.833Z,97103.84
2022-11-05T10:50:03.986Z,97106.75
2022-11-05T10:52:36.013Z,97109.88
2022-11-05T10:55:11.650Z,97109.09
2022-11-05T10:57:41.243Z,97109.44
2022-11-05T11:00:17.319Z,97119.88
2022-11-05T11:02:49.729Z,97115.13
2022-11-05T11:05:40.614Z,97121.97
2022-11-05T11:08:11.792Z,97113.31
2022-11-05T11:11:08.050Z,97115.41
2022-11-05T11:13:59.456Z,97121.34
2022-11-05T11:16:29.473Z,97117.69
2022-11-05T11:19:01.691Z,97123.56
2022-11-05T11:21:31.060Z,97133.06
2022-11-05T11:24:07.075Z,97134.84
2022-11-05T11:26:38.744Z,97123.28
2022-11-05T11:29:14.646Z,97126.72
2022-11-05T11:31:44.408Z,97126.94
2022-11-05T11:34:29.184Z,97136.84
2022-11-05T11:37:07.378Z,97134.31
2022-11-05T11:39:36.025Z,97143.66
2022-11-05T11:42:16.243Z,97136.19
2022-11-05T11:44:47.298Z,97140.84
2022-11-05T11:47:18.781Z,97137.63
2022-11-05T11:49:55.025Z,97152.31
2022-11-05T11:52:33.095Z,97155.69
2022-11-05T11:55:12.675Z,97154.59
2022-11-05T11:57:47.533Z,97165.03
2022-11-05T12:00:17.572Z,97152.28
2022-11-05T12:03:06.054Z,97169.16
2022-11-05T12:06:03.264Z,97165.03
2022-11-05T12:08:45.568Z,97169.06
2022-11-05T12:11:19.061Z,97174.94
2022-11-05T12:13:58.571Z,97172.94
2022-11-05T14:05:04.367Z,97268.34
2022-11-05T14:07:38.326Z,97277.34
2022-11-05T14:10:23.940Z,97277.88
2022-11-05T14:12:54.788Z,97277.41
2022-11-05T14:15:30.074Z,97275.22
2022-11-05T14:18:35.688Z,97280.22
2022-11-05T14:21:05.526Z,97279.97
2022-11-05T14:23:39.562Z,97292.78
2022-11-05T14:26:19.230Z,97296.66
2022-11-05T14:29:03.135Z,97297.31
2022-11-05T14:31:54.423Z,97282.72
2022-11-05T14:34:41.430Z,97295.22
2022-11-05T14:37:12.060Z,97295.50
2022-11-05T14:39:40.764Z,97284.72
2022-11-05T14:42:15.329Z,97297.75
2022-11-05T14:45:13.775Z,97307.56
2022-11-05T14:47:50.240Z,97304.19
2022-11-05T14:50:47.025Z,97313.34
2022-11-05T14:53:38.261Z,97307.56
2022-11-05T14:56:12.577Z,97316.75
2022-11-05T14:58:41.613Z,97307.25
2022-11-05T15:01:35.173Z,97320.66
2022-11-05T15:04:06.289Z,97318.31
2022-11-05T15:06:36.624Z,97328.19
2022-11-05T15:09:04.015Z,97327.50
2022-11-05T15:11:41.147Z,97328.84
2022-11-05T15:15:01.124Z,97334.44
2022-11-05T15:17:41.230Z,97337.28
2022-11-05T15:20:14.822Z,97322.75
2022-11-05T15:22:45.856Z,97342.31
2022-11-05T15:25:28.575Z,97342.31
2022-11-05T15:28:10.900Z,97349.53
2022-11-05T15:30:38.509Z,97350.03
2022-11-05T15:33:19.007Z,97356.28
2022-11-05T15:35:46.882Z,97364.94
2022-11-05T15:38:34.397Z,97353.75
2022-11-05T15:41:27.365Z,97315.13
2022-11-05T15:43:54.769Z,97340.88
2022-11-05T15:46:29.737Z,97355.78
2022-11-05T15:49:05.276Z,97365.28
2022-11-05T15:51:33.440Z,97358.25
2022-11-05T15:56:55.931Z,97358.25
2022-11-05T15:59:25.975Z,97359.22
2022-11-05T16:02:01.344Z,97357.78
2022-11-05T16:04:32.005Z,97362.78
2022-11-05T16:07:10.201Z,97357.66
2022-11-05T16:09:41.413Z,97362.22
2022-11-05T16:12:26.669Z,97351.34
2022-11-05T16:15:06.460Z,97368.84
2022-11-05T16:17:55.615Z,97365.84
2022-11-05T16:20:30.371Z,97373.41
2022-11-05T16:23:25.057Z,97369.13
2022-11-05T16:25:53.984Z,97368.41
2022-11-05T16:28:27.709Z,97378.44
2022-11-05T16:31:01.423Z,97367.75
2022-11-05T16:33:34.329Z,97381.75
2022-11-05T16:36:01.884Z,97381.16
2022-11-05T16:38:30.400Z,97391.03
2022-11-05T16:40:59.210Z,97384.00
2022-11-05T16:43:27.112Z,97380.53
2022-11-05T16:45:57.691Z,97385.63
2022-11-05T16:48:26.045Z,97380.38
2022-11-05T16:50:54.559Z,97383.91
2022-11-05T16:53:22.033Z,97389.25
2022-11-05T16:55:50.188Z,97389.56
2022-11-05T16:58:26.211Z,97390.22
2022-11-05T17:01:01.595Z,97398.16
2022-11-05T17:03:29.106Z,97400.53
2022-11-05T17:05:56.778Z,97406.28
2022-11-05T17:08:24.228Z,97400.91
2022-11-05T17:10:51.636Z,97409.34
2022-11-05T17:13:20.542Z,97402.88
2022-11-05T17:15:50.224Z,97419.91
2022-11-05T17:18:19.308Z,97412.34
2022-11-05T17:20:52.710Z,97416.16
2022-11-05T17:23:23.111Z,97418.31
2022-11-05T17:25:56.791Z,97417.16
2022-11-05T17:28:24.361Z,97423.75
2022-11-05T17:30:54.501Z,97411.00
2022-11-05T17:33:23.113Z,97431.63
2022-11-05T17:35:51.401Z,97407.03
2022-11-05T17:38:20.894Z,97428.78
2022-11-05T17:40:48.739Z,97434.38
2022-11-05T17:43:16.682Z,97429.81
2022-11-05T17:45:46.233Z,97428.06
2022-11-05T17:48:15.177Z,97416.94
2022-11-05T17:50:46.387Z,97438.88
2022-11-05T17:53:16.424Z,97432.56
2022-11-05T17:55:45.337Z,97431.13
2022-11-05T17:58:12.928Z,97433.22
2022-11-05T18:00:41.488Z,97435.03
2022-11-05T18:03:10.819Z,97431.53
2022-11-05T18:05:40.254Z,97411.41
2022-11-05T18:08:08.516Z,97443.97
2022-11-05T18:10:40.965Z,97443.56
2022-11-05T18:13:08.481Z,97441.63
2022-11-05T18:15:38.268Z,97447.06
2022-11-05T18:18:05.835Z,97457.81
2022-11-05T18:20:33.606Z,97460.16
2022-11-05T18:23:02.584Z,97465.38
2022-11-05T18:25:30.122Z,97457.91
2022-11-05T18:27:57.593Z,97448.00
2022-11-05T18:30:25.177Z,97456.13
2022-11-05T18:32:52.887Z,97451.91
2022-11-05T18:35:21.046Z,97457.97
2022-11-05T18:37:48.641Z,97455.72
2022-11-05T18:40:16.154Z,97454.91
2022-11-05T18:42:43.543Z,97463.03
2022-11-05T18:45:11.627Z,97463.34
2022-11-05T18:47:39.058Z,97462.13
2022-11-05T18:50:08.117Z,97468.06
2022-11-05T18:52:35.814Z,97471.50
2022-11-05T18:55:03.564Z,97468.16
2022-11-05T18:57:33.352Z,97472.41
2022-11-05T19:00:00.873Z,97479.19
2022-11-05T19:02:30.274Z,97483.84
2022-11-05T19:05:27.317Z,97467.06
2022-11-05T19:07:45.250Z,97479.00
2022-11-05T19:10:12.669Z,97475.75
2022-11-05T19:12:40.911Z,97468.34
2022-11-05T19:15:09.387Z,97479.19
2022-11-05T19:17:38.508Z,97469.59
2022-11-05T19:20:07.135Z,97471.44
2022-11-05T19:22:34.574Z,97477.41
2022-11-05T19:25:02.397Z,97475.09
2022-11-05T19:27:31.059Z,97481.19
2022-11-05T19:29:58.498Z,97476.00
2022-11-05T19:32:26.034Z,97477.09
2022-11-05T19:34:53.587Z,97482.25
2022-11-05T19:37:21.095Z,97483.66
2022-11-05T19:39:48.629Z,97490.84
2022-11-05T19:42:16.081Z,97498.84
2022-11-05T19:44:44.284Z,97497.03
2022-11-05T19:47:12.537Z,97488.53
2022-11-05T19:49:42.195Z,97505.03
2022-11-05T19:52:09.599Z,97495.78
2022-11-05T19:54:37.938Z,97505.03
2022-11-05T19:57:06.655Z,97508.28
2022-11-05T19:59:35.217Z,97505.75
2022-11-05T20:02:02.749Z,97512.06
2022-11-05T20:04:30.295Z,97527.41
2022-11-05T20:06:59.520Z,97517.72
2022-11-05T20:09:27.263Z,97515.53
2022-11-05T20:11:56.683Z,97526.56
2022-11-05T20:14:25.667Z,97530.69
2022-11-05T20:16:53.800Z,97525.22
2022-11-05T20:19:22.653Z,97522.81
2022-11-05T20:21:50.294Z,97519.38
2022-11-05T20:24:24.275Z,97519.47
2022-11-05T20:26:54.620Z,97524.56
2022-11-05T20:29:22.700Z,97539.94
2022-11-05T20:31:50.710Z,97533.03
2022-11-05T20:34:18.058Z,97512.72
2022-11-05T20:36:45.580Z,97525.03
2022-11-05T20:39:13.053Z,97529.56
2022-11-05T20:41:40.474Z,97539.50
2022-11-05T20:44:07.930Z,97535.56
2022-11-05T20:46:35.303Z,97534.81
2022-11-05T20:49:02.742Z,97539.22
2022-11-05T20:51:30.187Z,97539.22
2022-11-05T20:53:59.603Z,97540.47
2022-11-05T20:56:34.881Z,97542.16
2022-11-05T20:59:02.922Z,97546.25
2022-11-05T21:01:33.144Z,97537.81
2022-11-05T21:04:01.000Z,97542.84
2022-11-05T21:06:28.524Z,97534.91
2022-11-05T21:08:56.080Z,97539.75
2022-11-05T21:11:23.871Z,97539.88
2022-11-05T21:13:51.289Z,97543.97
2022-11-05T21:16:20.060Z,97541.75
2022-11-05T21:18:48.194Z,97544.91
2022-11-05T21:21:20.557Z,97549.91
2022-11-05T21:23:48.365Z,97553.88
2022-11-05T21:26:17.096Z,97538.97
2022-11-05T21:28:44.546Z,97552.91
2022-11-05T21:31:12.043Z,97537.91
2022-11-05T21:33:39.627Z,97545.09
2022-11-05T21:36:16.103Z,97560.84
2022-11-05T21:38:43.563Z,97573.28
2022-11-05T21:41:12.573Z,97566.84
2022-11-05T21:43:41.927Z,97568.41
2022-11-05T21:46:12.872Z,97577.00
2022-11-05T21:48:40.479Z,97564.63
2022-11-05T21:51:26.622Z,97567.75
2022-11-05T21:54:12.422Z,97574.22
2022-11-05T21:56:58.147Z,97576.72
2022-11-05T21:59:44.313Z,97584.72
2022-11-05T22:02:13.597Z,97585.47
2022-11-05T22:04:43.694Z,97593.16
2022-11-05T22:07:14.413Z,97583.13
2022-11-05T22:09:42.255Z,97582.72
2022-11-05T22:12:10.331Z,97592.09
2022-11-05T22:14:37.865Z,97593.56
2022-11-05T22:17:06.343Z,97595.56
2022-11-05T22:19:34.412Z,97596.34
2022-11-05T22:22:02.083Z,97599.47
2022-11-05T22:24:30.816Z,97592.09
2022-11-05T22:27:04.793Z,97585.00
2022-11-05T22:29:32.669Z,97594.59
2022-11-05T22:32:00.115Z,97590.50
2022-11-05T22:34:27.685Z,97596.94
2022-11-05T22:36:55.810Z,97596.28
2022-11-05T22:39:23.264Z,97584.72
2022-11-05T22:41:55.589Z,97589.84
2022-11-05T22:44:24.390Z,97597.84
2022-11-05T22:46:52.153Z,97588.91
2022-11-05T22:49:19.643Z,97601.44
2022-11-05T22:51:47.078Z,97592.06
2022-11-05T22:54:14.558Z,97600.72
2022-11-05T22:56:42.962Z,97602.75
2022-11-05T22:59:15.922Z,97608.84
2022-11-05T23:01:44.785Z,97602.47
2022-11-05T23:04:13.448Z,97608.59
2022-11-05T23:06:59.655Z,97608.75
2022-11-05T23:09:53.533Z,97613.38
2022-11-05T23:12:28.027Z,97605.78
2022-11-05T23:14:57.879Z,97612.13
2022-11-05T23:17:45.205Z,97610.53
2022-11-05T23:20:34.961Z,97610.63
2022-11-05T23:23:21.183Z,97611.13
2022-11-05T23:25:49.306Z,97608.34
2022-11-05T23:28:21.875Z,97605.22
2022-11-05T23:31:07.703Z,97613.22
2022-11-05T23:33:35.710Z,97616.38
2022-11-05T23:36:22.360Z,97618.13
2022-11-05T23:38:49.732Z,97622.47
2022-11-05T23:41:35.259Z,97618.44
2022-11-05T23:44:21.171Z,97617.13
2022-11-05T23:47:06.912Z,97624.19
2022-11-05T23:49:34.307Z,97633.56
2022-11-05T23:52:01.671Z,97620.13
2022-11-05T23:54:29.708Z,97621.22
2022-11-05T23:56:57.031Z,97625.34
2022-11-05T23:59:24.442Z,97631.22
